createdAt,value
2019-03-25T00:02:06.388Z,89.73
2019-03-25T00:04:47.123Z,81.00
2019-03-25T00:07:28.001Z,78.40
2019-03-25T00:10:09.292Z,86.50
2019-03-25T00:12:50.260Z,80.93
2019-03-25T00:15:31.219Z,78.07
2019-03-25T00:18:12.498Z,79.53
2019-03-25T00:20:53.465Z,75.13
2019-03-25T00:23:33.775Z,74.87
2019-03-25T00:26:14.161Z,76.97
2019-03-25T00:28:54.747Z,76.43
2019-03-25T00:31:35.462Z,74.43
2019-03-25T00:34:15.802Z,75.37
2019-03-25T00:36:56.663Z,80.30
2019-03-25T00:39:36.979Z,85.27
2019-03-25T00:42:17.305Z,84.10
2019-03-25T00:44:58.256Z,84.70
2019-03-25T00:47:40.974Z,84.63
2019-03-25T00:50:22.112Z,82.40
2019-03-25T00:53:03.070Z,84.17
2019-03-25T00:55:43.772Z,87.53
2019-03-25T00:58:24.142Z,82.63
2019-03-25T01:01:04.526Z,84.73
2019-03-25T01:03:45.060Z,98.90
2019-03-25T01:06:25.300Z,91.67
2019-03-25T01:09:05.992Z,87.57
2019-03-25T01:11:49.186Z,83.87
2019-03-25T01:14:27.334Z,98.83
2019-03-25T01:17:07.702Z,101.20
2019-03-25T01:19:48.097Z,104.93
2019-03-25T01:22:28.456Z,115.30
2019-03-25T01:25:09.754Z,130.57
2019-03-25T01:27:50.460Z,133.03
2019-03-25T01:30:31.643Z,132.63
2019-03-25T01:33:12.302Z,140.10
2019-03-25T01:35:53.574Z,127.30
2019-03-25T01:38:34.249Z,133.60
2019-03-25T01:41:15.488Z,144.80
2019-03-25T01:43:56.488Z,126.23
2019-03-25T01:46:37.732Z,115.90
2019-03-25T01:49:18.973Z,117.73
2019-03-25T01:51:59.959Z,112.03
2019-03-25T01:54:40.436Z,108.60
2019-03-25T01:57:21.627Z,98.40
2019-03-25T02:00:02.695Z,88.70
2019-03-25T02:02:43.818Z,87.13
2019-03-25T02:05:25.088Z,76.97
2019-03-25T02:08:06.054Z,76.93
2019-03-25T02:10:47.296Z,69.57
2019-03-25T02:13:28.938Z,57.37
2019-03-25T02:16:10.203Z,55.57
2019-03-25T02:18:51.179Z,58.63
2019-03-25T02:21:32.628Z,65.00
2019-03-25T02:24:14.054Z,62.27
2019-03-25T02:26:55.016Z,50.83
2019-03-25T02:29:35.882Z,47.20
2019-03-25T02:32:16.746Z,46.93
2019-03-25T02:34:57.908Z,42.97
2019-03-25T02:37:40.143Z,45.17
2019-03-25T02:40:20.899Z,40.73
2019-03-25T02:43:01.945Z,38.93
2019-03-25T02:45:42.563Z,39.13
2019-03-25T02:48:23.005Z,41.80
2019-03-25T02:51:03.158Z,42.83
2019-03-25T02:53:44.373Z,43.50
2019-03-25T02:56:24.598Z,38.83
2019-03-25T02:59:06.893Z,34.63
2019-03-25T03:01:47.790Z,33.60
2019-03-25T03:04:28.756Z,34.60
2019-03-25T03:07:09.535Z,33.90
2019-03-25T03:09:50.654Z,38.27
2019-03-25T03:12:31.284Z,36.63
2019-03-25T03:15:12.342Z,35.17
2019-03-25T03:17:54.493Z,30.23
2019-03-25T03:20:36.093Z,29.83
2019-03-25T03:23:16.819Z,31.47
2019-03-25T03:25:58.295Z,32.13
2019-03-25T03:28:39.036Z,31.00
2019-03-25T03:31:20.637Z,31.57
2019-03-25T03:34:01.846Z,34.87
2019-03-25T03:36:42.255Z,33.10
2019-03-25T03:39:22.606Z,31.00
2019-03-25T03:42:03.211Z,28.97
2019-03-25T03:44:44.155Z,28.07
2019-03-25T03:47:24.835Z,27.70
2019-03-25T03:50:07.111Z,28.60
2019-03-25T03:52:48.015Z,27.93
2019-03-25T03:55:28.676Z,27.20
2019-03-25T03:58:09.895Z,25.90
2019-03-25T04:00:50.946Z,26.27
2019-03-25T04:03:32.114Z,26.07
2019-03-25T04:06:13.158Z,26.73
2019-03-25T04:08:53.783Z,26.07
2019-03-25T04:11:34.987Z,26.70
2019-03-25T04:14:15.580Z,26.77
2019-03-25T04:16:56.587Z,27.77
2019-03-25T04:19:37.507Z,28.17
2019-03-25T04:22:18.157Z,26.10
2019-03-25T04:24:59.234Z,28.10
2019-03-25T04:27:39.962Z,28.00
2019-03-25T04:30:21.398Z,26.37
2019-03-25T04:33:02.625Z,26.07
2019-03-25T04:35:43.713Z,26.67
2019-03-25T04:38:25.231Z,24.53
2019-03-25T04:41:05.967Z,24.53
2019-03-25T04:43:47.025Z,26.10
2019-03-25T04:46:28.416Z,25.10
2019-03-25T04:49:09.356Z,23.40
2019-03-25T04:51:50.340Z,25.37
2019-03-25T04:54:31.335Z,23.83
2019-03-25T04:57:12.266Z,24.13
2019-03-25T04:59:52.916Z,23.87
2019-03-25T05:02:34.208Z,24.00
2019-03-25T05:05:15.509Z,23.83
2019-03-25T05:07:56.470Z,23.43
2019-03-25T05:10:37.929Z,23.00
2019-03-25T05:13:19.055Z,22.97
2019-03-25T05:15:59.956Z,23.13
2019-03-25T05:18:41.241Z,23.97
2019-03-25T05:21:22.518Z,24.73
2019-03-25T05:24:03.555Z,23.63
2019-03-25T05:26:51.034Z,23.40
2019-03-25T05:29:26.281Z,23.63
2019-03-25T05:32:07.063Z,23.13
2019-03-25T05:34:48.031Z,23.67
2019-03-25T05:37:28.753Z,22.98
2019-03-25T05:40:10.174Z,23.53
2019-03-25T05:42:51.475Z,22.80
2019-03-25T05:45:32.415Z,23.50
2019-03-25T05:48:15.005Z,24.07
2019-03-25T05:50:56.201Z,25.10
2019-03-25T05:53:38.813Z,23.47
2019-03-25T05:56:19.192Z,23.60
2019-03-25T05:59:00.778Z,23.97
2019-03-25T06:01:44.087Z,23.90
2019-03-25T06:04:23.985Z,23.73
2019-03-25T06:07:05.544Z,23.80
2019-03-25T06:09:47.166Z,24.50
2019-03-25T06:12:28.207Z,23.70
2019-03-25T06:15:09.155Z,25.10
2019-03-25T06:17:49.785Z,25.87
2019-03-25T06:20:30.653Z,24.53
2019-03-25T06:23:11.696Z,24.77
2019-03-25T06:25:52.891Z,24.87
2019-03-25T06:28:33.700Z,25.30
2019-03-25T06:31:14.921Z,24.00
2019-03-25T06:33:56.136Z,24.92
2019-03-25T06:36:36.897Z,24.00
2019-03-25T06:39:18.420Z,25.82
2019-03-25T06:41:59.026Z,25.17
2019-03-25T06:44:39.793Z,24.63
2019-03-25T06:47:20.923Z,26.43
2019-03-25T06:50:01.658Z,26.82
2019-03-25T06:52:42.844Z,27.93
2019-03-25T06:55:24.177Z,27.98
2019-03-25T06:58:05.426Z,27.13
2019-03-25T07:00:46.016Z,27.80
2019-03-25T07:03:26.762Z,27.82
2019-03-25T07:06:08.350Z,28.45
2019-03-25T07:08:49.458Z,28.73
2019-03-25T07:11:30.448Z,28.85
2019-03-25T07:14:11.807Z,27.60
2019-03-25T07:16:52.809Z,27.32
2019-03-25T07:19:33.662Z,29.40
2019-03-25T07:22:14.920Z,32.25
2019-03-25T07:24:56.010Z,30.35
2019-03-25T07:27:37.259Z,32.55
2019-03-25T07:30:18.286Z,31.52
2019-03-25T07:32:59.524Z,32.75
2019-03-25T07:35:40.509Z,33.33
2019-03-25T07:38:21.783Z,33.58
2019-03-25T07:41:04.130Z,34.67
2019-03-25T07:43:45.621Z,34.30
2019-03-25T07:46:27.238Z,33.35
2019-03-25T07:49:08.506Z,33.10
2019-03-25T07:51:49.657Z,33.13
2019-03-25T07:54:30.943Z,32.13
2019-03-25T07:57:12.369Z,32.78
2019-03-25T07:59:53.993Z,31.45
2019-03-25T08:02:35.256Z,30.15
2019-03-25T08:05:16.175Z,33.92
2019-03-25T08:07:57.262Z,35.25
2019-03-25T08:10:40.389Z,32.48
2019-03-25T08:13:21.490Z,33.70
2019-03-25T08:16:03.450Z,33.20
2019-03-25T08:18:44.721Z,29.98
2019-03-25T08:21:25.664Z,31.33
2019-03-25T08:24:06.697Z,29.42
2019-03-25T08:26:47.644Z,31.05
2019-03-25T08:29:28.682Z,28.70
2019-03-25T08:32:09.943Z,28.32
2019-03-25T08:34:50.795Z,26.37
2019-03-25T08:37:32.178Z,26.65
2019-03-25T08:40:13.413Z,25.55
2019-03-25T08:42:54.735Z,26.97
2019-03-25T08:45:35.709Z,22.32
2019-03-25T08:48:17.005Z,23.77
2019-03-25T08:50:57.951Z,24.07
2019-03-25T08:53:38.801Z,23.52
2019-03-25T08:56:19.879Z,20.65
2019-03-25T08:59:00.915Z,21.02
2019-03-25T09:01:42.122Z,19.75
2019-03-25T09:04:22.769Z,20.12
2019-03-25T09:07:03.919Z,18.27
2019-03-25T09:09:44.998Z,18.37
2019-03-25T09:12:26.268Z,17.27
2019-03-25T09:15:06.920Z,17.77
2019-03-25T09:17:47.729Z,18.17
2019-03-25T09:20:28.450Z,18.30
2019-03-25T09:23:09.499Z,20.12
2019-03-25T09:25:50.649Z,18.40
2019-03-25T09:28:31.686Z,20.85
2019-03-25T09:31:12.774Z,22.62
2019-03-25T09:33:53.502Z,22.07
2019-03-25T09:36:34.473Z,20.92
2019-03-25T09:39:15.426Z,20.57
2019-03-25T09:41:56.716Z,19.50
2019-03-25T09:44:37.738Z,22.13
2019-03-25T09:47:18.628Z,20.82
2019-03-25T09:50:00.384Z,21.70
2019-03-25T09:52:42.132Z,19.77
2019-03-25T09:55:23.267Z,23.45
2019-03-25T09:58:04.683Z,25.70
2019-03-25T10:00:46.290Z,62.23
2019-03-25T10:03:27.065Z,70.47
2019-03-25T10:06:08.511Z,51.05
2019-03-25T10:08:49.691Z,38.90
2019-03-25T10:11:30.590Z,24.98
2019-03-25T10:14:12.956Z,25.65
2019-03-25T10:16:53.404Z,27.50
2019-03-25T10:19:34.101Z,19.92
2019-03-25T10:22:15.707Z,19.10
2019-03-25T10:24:56.978Z,17.15
2019-03-25T10:27:38.360Z,18.10
2019-03-25T10:30:19.544Z,19.15
2019-03-25T10:33:01.167Z,19.32
2019-03-25T10:35:42.422Z,19.05
2019-03-25T10:38:23.367Z,19.57
2019-03-25T10:41:04.030Z,18.60
2019-03-25T10:43:44.171Z,19.20
2019-03-25T10:46:24.339Z,21.12
2019-03-25T10:49:04.724Z,20.60
2019-03-25T10:51:45.847Z,21.12
2019-03-25T10:54:26.793Z,20.37
2019-03-25T10:57:07.629Z,19.92
2019-03-25T10:59:48.743Z,18.77
2019-03-25T11:02:30.233Z,18.93
2019-03-25T11:05:11.360Z,19.87
2019-03-25T11:07:52.467Z,18.90
2019-03-25T11:10:33.549Z,18.42
2019-03-25T11:13:14.169Z,18.25
2019-03-25T11:15:55.449Z,18.27
2019-03-25T11:18:36.406Z,18.48
2019-03-25T11:21:17.354Z,20.32
2019-03-25T11:23:58.361Z,19.52
2019-03-25T11:26:39.307Z,19.20
2019-03-25T11:29:20.598Z,19.77
2019-03-25T11:32:02.019Z,21.05
2019-03-25T11:34:43.449Z,21.37
2019-03-25T11:37:25.403Z,28.30
2019-03-25T11:40:06.337Z,26.23
2019-03-25T11:42:47.300Z,24.72
2019-03-25T11:45:28.627Z,24.32
2019-03-25T11:48:09.215Z,24.80
2019-03-25T11:50:49.877Z,23.90
2019-03-25T11:53:30.842Z,28.30
2019-03-25T11:56:12.186Z,26.15
2019-03-25T11:58:52.728Z,29.10
2019-03-25T12:01:33.366Z,28.63
2019-03-25T12:04:14.308Z,27.53
2019-03-25T12:06:55.199Z,26.80
2019-03-25T12:09:36.920Z,26.40
2019-03-25T12:12:17.912Z,26.70
2019-03-25T12:15:01.447Z,31.63
2019-03-25T12:17:41.448Z,30.10
2019-03-25T12:20:22.728Z,34.03
2019-03-25T12:23:03.627Z,32.67
2019-03-25T12:25:45.213Z,32.13
2019-03-25T12:28:26.063Z,35.97
2019-03-25T12:31:07.160Z,34.43
2019-03-25T12:33:47.609Z,32.37
2019-03-25T12:36:28.411Z,32.13
2019-03-25T12:39:09.374Z,32.37
2019-03-25T12:41:50.659Z,30.17
2019-03-25T12:44:31.940Z,30.60
2019-03-25T12:47:13.546Z,34.77
2019-03-25T12:49:54.808Z,34.67
2019-03-25T12:52:35.770Z,32.40
2019-03-25T12:55:16.745Z,32.47
2019-03-25T12:57:57.687Z,32.60
2019-03-25T13:00:39.247Z,32.53
2019-03-25T13:03:19.847Z,32.87
2019-03-25T13:06:00.891Z,32.97
2019-03-25T13:08:41.849Z,33.73
2019-03-25T13:11:22.875Z,38.60
2019-03-25T13:14:04.107Z,37.87
2019-03-25T13:16:45.712Z,37.00
2019-03-25T13:19:26.718Z,39.03
2019-03-25T13:22:07.804Z,37.37
2019-03-25T13:24:49.211Z,44.70
2019-03-25T13:27:30.171Z,50.23
2019-03-25T13:30:10.815Z,50.23
2019-03-25T13:32:51.479Z,58.27
2019-03-25T13:35:32.096Z,82.07
2019-03-25T13:38:13.054Z,59.60
2019-03-25T13:40:54.033Z,54.57
2019-03-25T13:43:34.977Z,53.33
2019-03-25T13:46:15.924Z,56.07
2019-03-25T13:48:57.216Z,58.57
2019-03-25T13:51:37.552Z,59.40
2019-03-25T13:54:18.806Z,59.17
2019-03-25T13:56:59.773Z,59.70
2019-03-25T13:59:41.049Z,60.47
2019-03-25T14:02:24.266Z,80.60
2019-03-25T14:05:03.663Z,79.03
2019-03-25T14:07:45.215Z,97.43
2019-03-25T14:10:26.817Z,104.40
2019-03-25T14:13:07.989Z,88.53
2019-03-25T14:15:49.073Z,113.23
2019-03-25T14:18:30.330Z,103.43
2019-03-25T14:21:11.635Z,110.20
2019-03-25T14:23:52.283Z,105.13
2019-03-25T14:26:33.534Z,108.70
2019-03-25T14:29:14.740Z,125.23
2019-03-25T14:31:56.437Z,117.77
2019-03-25T14:34:44.644Z,122.93
2019-03-25T14:37:18.974Z,121.23
2019-03-25T14:40:00.392Z,112.63
2019-03-25T14:42:41.681Z,109.13
2019-03-25T14:45:26.429Z,114.50
2019-03-25T14:48:03.854Z,116.27
2019-03-25T14:50:44.088Z,119.23
2019-03-25T14:53:25.056Z,113.57
2019-03-25T14:56:06.016Z,109.17
2019-03-25T14:58:47.057Z,75.03
2019-03-25T15:01:27.926Z,75.27
2019-03-25T15:04:08.931Z,82.07
2019-03-25T15:06:49.541Z,81.47
2019-03-25T15:09:30.810Z,85.23
2019-03-25T15:12:11.781Z,84.53
2019-03-25T15:14:53.057Z,85.17
2019-03-25T15:17:34.173Z,86.50
2019-03-25T15:20:15.292Z,86.67
2019-03-25T15:22:56.617Z,92.17
2019-03-25T15:25:37.302Z,85.60
2019-03-25T15:28:18.181Z,85.67
2019-03-25T15:30:58.897Z,94.40
2019-03-25T15:33:40.137Z,99.13
2019-03-25T15:36:20.703Z,84.83
2019-03-25T15:39:01.699Z,99.93
2019-03-25T15:41:42.334Z,85.30
2019-03-25T15:44:22.966Z,85.83
2019-03-25T15:47:03.937Z,93.43
2019-03-25T15:49:44.567Z,106.07
2019-03-25T15:52:25.530Z,107.93
2019-03-25T15:55:07.127Z,111.70
2019-03-25T15:57:48.110Z,107.83
2019-03-25T16:00:29.049Z,115.50
2019-03-25T16:03:10.086Z,120.50
2019-03-25T16:05:51.287Z,126.47
2019-03-25T16:08:32.284Z,121.57
2019-03-25T16:11:13.524Z,122.30
2019-03-25T16:13:55.143Z,125.40
2019-03-25T16:16:36.428Z,115.23
2019-03-25T16:19:17.689Z,119.20
2019-03-25T16:21:59.609Z,122.73
2019-03-25T16:24:40.691Z,122.53
2019-03-25T16:27:21.697Z,121.83
2019-03-25T16:30:02.839Z,123.20
2019-03-25T16:32:43.840Z,115.47
2019-03-25T16:35:25.135Z,123.20
2019-03-25T16:38:06.326Z,130.23
2019-03-25T16:40:47.761Z,111.47
2019-03-25T16:43:28.916Z,108.97
2019-03-25T16:46:09.476Z,103.37
2019-03-25T16:48:50.725Z,123.20
2019-03-25T16:51:32.306Z,116.97
2019-03-25T16:54:13.472Z,117.00
2019-03-25T16:56:55.292Z,119.87
2019-03-25T16:59:35.927Z,126.70
2019-03-25T17:02:17.436Z,128.57
2019-03-25T17:04:58.498Z,126.27
2019-03-25T17:07:39.790Z,129.77
2019-03-25T17:10:21.270Z,128.17
2019-03-25T17:13:02.657Z,127.77
2019-03-25T17:15:43.881Z,128.37
2019-03-25T17:18:24.769Z,130.40
2019-03-25T17:21:06.173Z,128.07
2019-03-25T17:23:48.479Z,126.97
2019-03-25T17:26:29.461Z,127.67
2019-03-25T17:29:10.362Z,119.13
2019-03-25T17:31:53.245Z,121.60
2019-03-25T17:34:35.154Z,124.83
2019-03-25T17:37:17.472Z,120.93
2019-03-25T17:39:58.973Z,122.37
2019-03-25T17:42:39.319Z,117.97
2019-03-25T17:45:20.568Z,127.10
2019-03-25T17:48:03.188Z,125.13
2019-03-25T17:50:43.768Z,129.50
2019-03-25T17:53:24.218Z,134.77
2019-03-25T17:56:04.773Z,138.73
2019-03-25T17:58:44.897Z,142.17
2019-03-25T18:01:32.071Z,139.27
2019-03-25T18:04:06.229Z,142.03
2019-03-25T18:06:46.844Z,141.37
2019-03-25T18:09:27.307Z,135.27
2019-03-25T18:12:07.562Z,141.23
2019-03-25T18:14:47.689Z,139.33
2019-03-25T18:17:28.049Z,136.57
2019-03-25T18:20:17.939Z,123.53
2019-03-25T18:22:49.521Z,128.83
2019-03-25T18:25:29.883Z,131.50
2019-03-25T18:28:10.537Z,132.70
2019-03-25T18:30:50.891Z,130.47
2019-03-25T18:33:31.227Z,135.20
2019-03-25T18:36:11.987Z,134.70
2019-03-25T18:38:53.078Z,135.40
2019-03-25T18:41:34.346Z,135.37
2019-03-25T18:44:16.301Z,137.93
2019-03-25T18:46:57.074Z,135.73
2019-03-25T18:49:37.466Z,135.80
2019-03-25T18:52:19.152Z,135.10
2019-03-25T18:55:00.040Z,136.97
2019-03-25T18:57:40.753Z,142.27
2019-03-25T19:00:21.180Z,136.13
2019-03-25T19:03:02.771Z,140.67
2019-03-25T19:05:43.309Z,134.20
2019-03-25T19:08:24.304Z,131.27
2019-03-25T19:11:05.676Z,133.67
2019-03-25T19:13:46.168Z,134.80
2019-03-25T19:16:27.545Z,138.50
2019-03-25T19:19:09.071Z,135.50
2019-03-25T19:21:50.341Z,127.97
2019-03-25T19:24:31.623Z,125.53
2019-03-25T19:27:12.646Z,132.60
2019-03-25T19:29:53.530Z,123.73
2019-03-25T19:32:34.390Z,133.50
2019-03-25T19:35:16.107Z,121.53
2019-03-25T19:37:57.049Z,121.10
2019-03-25T19:40:38.007Z,108.70
2019-03-25T19:43:19.119Z,107.70
2019-03-25T19:46:00.325Z,118.87
2019-03-25T19:48:41.543Z,119.60
2019-03-25T19:51:22.837Z,116.33
2019-03-25T19:54:03.100Z,113.23
2019-03-25T19:56:44.145Z,109.37
2019-03-25T19:59:25.056Z,103.50
2019-03-25T20:02:17.959Z,104.00
2019-03-25T20:04:48.060Z,101.97
2019-03-25T20:07:30.336Z,105.80
2019-03-25T20:10:11.804Z,105.23
2019-03-25T20:12:52.728Z,109.17
2019-03-25T20:15:45.396Z,105.93
2019-03-25T20:18:15.691Z,100.60
2019-03-25T20:20:56.672Z,100.93
2019-03-25T20:23:37.911Z,100.03
2019-03-25T20:26:18.501Z,98.27
2019-03-25T20:28:59.776Z,95.40
2019-03-25T20:31:41.712Z,93.83
2019-03-25T20:34:22.499Z,95.10
2019-03-25T20:37:03.756Z,94.90
2019-03-25T20:39:44.597Z,92.90
2019-03-25T20:42:25.847Z,98.93
2019-03-25T20:45:06.580Z,97.03
2019-03-25T20:47:48.155Z,95.90
2019-03-25T20:50:29.128Z,102.07
2019-03-25T20:53:10.657Z,100.97
2019-03-25T20:55:51.286Z,95.63
2019-03-25T20:58:32.254Z,100.93
2019-03-25T21:01:12.953Z,101.20
2019-03-25T21:03:53.895Z,96.73
2019-03-25T21:06:34.493Z,92.47
2019-03-25T21:09:15.786Z,93.13
2019-03-25T21:11:56.764Z,98.53
2019-03-25T21:14:37.725Z,99.37
2019-03-25T21:17:18.470Z,95.03
2019-03-25T21:19:59.548Z,95.90
2019-03-25T21:22:40.357Z,90.80
2019-03-25T21:25:20.904Z,100.20
2019-03-25T21:28:02.157Z,95.67
2019-03-25T21:30:48.154Z,92.73
2019-03-25T21:33:25.686Z,94.10
2019-03-25T21:36:06.975Z,94.70
2019-03-25T21:38:49.054Z,97.83
2019-03-25T21:41:30.179Z,100.90
2019-03-25T21:44:11.176Z,124.93
2019-03-25T21:46:51.868Z,119.30
2019-03-25T21:49:32.666Z,118.17
2019-03-25T21:52:13.665Z,111.90
2019-03-25T21:54:54.995Z,110.53
2019-03-25T21:57:35.961Z,113.77
2019-03-25T22:00:16.820Z,118.03
2019-03-25T22:03:11.021Z,106.87
2019-03-25T22:05:39.775Z,107.80
2019-03-25T22:08:20.727Z,109.60
2019-03-25T22:11:01.070Z,107.60
2019-03-25T22:13:42.326Z,99.67
2019-03-25T22:16:23.146Z,103.00
2019-03-25T22:19:04.574Z,98.67
2019-03-25T22:21:45.356Z,96.20
2019-03-25T22:24:26.435Z,92.43
2019-03-25T22:27:08.435Z,91.17
2019-03-25T22:29:49.148Z,85.87
2019-03-25T22:32:30.351Z,81.10
2019-03-25T22:35:11.615Z,82.23
2019-03-25T22:37:52.267Z,82.90
2019-03-25T22:40:33.216Z,86.47
2019-03-25T22:43:13.613Z,81.73
2019-03-25T22:45:55.461Z,85.60
2019-03-25T22:48:36.410Z,86.13
2019-03-25T22:51:17.353Z,85.27
2019-03-25T22:53:58.656Z,86.07
2019-03-25T22:56:39.997Z,98.20
2019-03-25T22:59:20.913Z,99.80
2019-03-25T23:02:02.371Z,96.80
2019-03-25T23:04:42.775Z,91.87
2019-03-25T23:07:23.197Z,89.37
2019-03-25T23:10:03.588Z,82.20
2019-03-25T23:12:44.167Z,85.60
2019-03-25T23:15:25.369Z,90.90
2019-03-25T23:18:06.650Z,89.57
2019-03-25T23:20:47.117Z,98.37
2019-03-25T23:23:28.572Z,102.00
2019-03-25T23:26:09.869Z,96.77
2019-03-25T23:28:51.126Z,95.97
2019-03-25T23:31:32.413Z,95.33
2019-03-25T23:34:13.367Z,96.43
2019-03-25T23:36:54.388Z,97.97
2019-03-25T23:39:35.698Z,107.30
2019-03-25T23:42:17.213Z,105.43
2019-03-25T23:44:58.164Z,112.93
2019-03-25T23:47:39.844Z,148.67
2019-03-25T23:50:20.735Z,107.93
2019-03-25T23:53:02.019Z,104.77
2019-03-25T23:55:42.979Z,109.43
2019-03-25T23:58:23.727Z,111.93
